createdAt,value
2024-03-08T00:04:34.163Z,9.48
2024-03-08T00:09:37.292Z,9.73
2024-03-08T00:14:38.946Z,10.13
2024-03-08T00:19:40.746Z,9.20
2024-03-08T00:24:44.235Z,11.27
2024-03-08T00:29:46.103Z,9.18
2024-03-08T00:34:47.914Z,11.48
2024-03-08T00:39:51.281Z,9.70
2024-03-08T00:49:55.229Z,10.15
2024-03-08T00:54:58.230Z,10.18
2024-03-08T00:59:59.987Z,11.40
2024-03-08T01:05:01.695Z,9.18
2024-03-08T01:10:05.551Z,10.00
2024-03-08T01:15:07.988Z,10.77
2024-03-08T01:20:11.839Z,10.55
2024-03-08T01:25:15.013Z,12.18
2024-03-08T01:30:16.877Z,9.63
2024-03-08T01:35:18.560Z,9.35
2024-03-08T01:40:22.009Z,8.95
2024-03-08T01:50:25.219Z,10.05
2024-03-08T01:55:28.339Z,10.40
2024-03-08T02:00:29.988Z,10.07
2024-03-08T02:05:31.895Z,9.50
2024-03-08T02:10:34.987Z,10.85
2024-03-08T02:15:52.867Z,11.00
2024-03-08T02:20:56.819Z,10.07
2024-03-08T02:25:58.671Z,9.57
2024-03-08T02:31:00.434Z,8.90
2024-03-08T02:36:03.820Z,9.35
2024-03-08T02:41:05.563Z,9.50
2024-03-08T02:46:07.191Z,10.35
2024-03-08T02:51:10.156Z,9.50
2024-03-08T02:56:11.807Z,10.75
2024-03-08T03:01:13.501Z,11.07
2024-03-08T03:06:16.537Z,8.95
2024-03-08T03:11:18.194Z,12.15
2024-03-08T03:16:19.938Z,11.05
2024-03-08T03:21:23.213Z,9.93
2024-03-08T03:26:24.914Z,11.65
2024-03-08T03:31:26.709Z,10.02
2024-03-08T03:36:29.865Z,10.68
2024-03-08T03:41:31.630Z,9.93
2024-03-08T03:46:33.316Z,9.98
2024-03-08T03:51:36.374Z,11.07
2024-03-08T03:56:38.326Z,9.68
2024-03-08T04:01:43.313Z,8.20
2024-03-08T04:06:46.368Z,10.95
2024-03-08T04:11:48.161Z,8.82
2024-03-08T04:16:49.862Z,8.18
2024-03-08T04:21:52.809Z,8.68
2024-03-08T04:26:54.705Z,9.15
2024-03-08T04:31:56.579Z,10.18
2024-03-08T04:36:59.720Z,11.82
2024-03-08T04:42:06.135Z,13.00
2024-03-08T04:47:08.297Z,10.05
2024-03-08T04:52:11.316Z,8.70
2024-03-08T04:57:12.970Z,9.68
2024-03-08T05:02:14.618Z,8.80
2024-03-08T05:07:17.640Z,8.32
2024-03-08T05:12:19.386Z,9.20
2024-03-08T05:17:21.105Z,8.38
2024-03-08T05:22:24.173Z,9.15
2024-03-08T05:27:25.851Z,10.43
2024-03-08T05:32:28.616Z,10.48
2024-03-08T05:37:33.700Z,9.07
2024-03-08T05:42:35.429Z,12.25
2024-03-08T05:47:37.073Z,12.10
2024-03-08T05:52:40.440Z,9.23
2024-03-08T05:57:42.100Z,9.25
2024-03-08T06:02:44.971Z,10.88
2024-03-08T06:07:47.929Z,9.15
2024-03-08T06:12:49.511Z,10.07
2024-03-08T06:17:51.175Z,8.30
2024-03-08T06:22:54.446Z,9.45
2024-03-08T06:27:56.218Z,10.00
2024-03-08T06:32:57.971Z,11.35
2024-03-08T06:38:01.406Z,10.15
2024-03-08T06:43:03.117Z,9.55
2024-03-08T06:48:05.621Z,10.27
2024-03-08T06:53:08.614Z,9.30
2024-03-08T06:58:10.282Z,11.13
2024-03-08T07:03:11.898Z,10.38
2024-03-08T07:08:14.902Z,8.73
2024-03-08T07:13:16.516Z,11.48
2024-03-08T07:18:18.169Z,12.00
2024-03-08T07:23:21.312Z,10.68
2024-03-08T07:28:23.408Z,10.95
2024-03-08T07:33:25.100Z,11.45
2024-03-08T07:38:28.318Z,11.60
2024-03-08T07:43:30.053Z,13.57
2024-03-08T07:48:32.038Z,10.60
2024-03-08T07:53:35.149Z,10.95
2024-03-08T07:58:36.846Z,11.02
2024-03-08T08:03:38.501Z,12.57
2024-03-08T08:08:42.374Z,10.15
2024-03-08T08:13:44.042Z,11.98
2024-03-08T08:18:45.711Z,9.70
2024-03-08T08:23:48.652Z,11.55
2024-03-08T08:28:50.467Z,12.35
2024-03-08T08:33:52.404Z,12.02
2024-03-08T08:38:55.411Z,11.55
2024-03-08T08:44:03.699Z,11.07
2024-03-08T08:49:16.193Z,11.20
2024-03-08T08:54:19.553Z,8.88
2024-03-08T08:59:23.719Z,10.18
2024-03-08T09:04:25.570Z,10.05
2024-03-08T09:09:28.709Z,10.07
2024-03-08T09:14:30.309Z,11.32
2024-03-08T09:19:31.956Z,9.57
2024-03-08T09:24:35.143Z,8.73
2024-03-08T09:29:37.158Z,10.32
2024-03-08T09:34:39.028Z,8.13
2024-03-08T09:39:42.228Z,7.63
2024-03-08T09:44:47.434Z,7.40
2024-03-08T09:49:49.111Z,7.85
2024-03-08T09:54:52.125Z,8.15
2024-03-08T09:59:53.812Z,8.90
2024-03-08T10:04:55.481Z,6.95
2024-03-08T10:09:58.719Z,7.68
2024-03-08T10:15:00.442Z,8.05
2024-03-08T10:20:02.354Z,6.55
2024-03-08T10:25:06.221Z,8.13
2024-03-08T10:30:12.147Z,7.63
2024-03-08T10:35:14.001Z,8.65
2024-03-08T10:40:19.668Z,6.95
2024-03-08T10:45:31.517Z,8.60
2024-03-08T10:50:34.051Z,7.82
2024-03-08T10:55:40.649Z,7.30
2024-03-08T11:00:42.442Z,7.72
2024-03-08T11:05:46.464Z,7.13
2024-03-08T11:10:51.753Z,6.57
2024-03-08T11:15:53.445Z,7.03
2024-03-08T11:20:55.162Z,7.65
2024-03-08T11:25:58.515Z,6.18
2024-03-08T11:31:26.454Z,7.20
2024-03-08T11:36:28.239Z,7.78
2024-03-08T11:41:31.617Z,7.35
2024-03-08T11:46:33.500Z,7.18
2024-03-08T11:51:35.226Z,6.93
2024-03-08T11:56:38.664Z,8.15
2024-03-08T12:01:40.402Z,7.28
2024-03-08T12:06:42.441Z,5.90
2024-03-08T12:11:48.651Z,7.18
2024-03-08T12:16:52.165Z,6.97
2024-03-08T12:21:54.951Z,6.00
2024-03-08T12:26:57.904Z,7.35
2024-03-08T12:32:00.795Z,6.60
2024-03-08T12:37:03.179Z,6.20
2024-03-08T12:42:07.179Z,5.65
2024-03-08T12:47:08.900Z,7.10
2024-03-08T12:52:11.347Z,5.97
2024-03-08T13:02:16.029Z,5.57
2024-03-08T13:07:17.735Z,5.88
2024-03-08T13:12:21.077Z,6.50
2024-03-08T13:17:22.739Z,6.22
2024-03-08T13:22:24.394Z,6.05
2024-03-08T13:27:28.026Z,5.72
2024-03-08T13:32:29.824Z,4.97
2024-03-08T13:37:31.651Z,7.00
2024-03-08T13:42:34.666Z,6.63
2024-03-08T13:47:36.357Z,6.13
2024-03-08T13:52:37.986Z,7.70
2024-03-08T13:57:40.993Z,5.75
2024-03-08T14:02:43.750Z,5.97
2024-03-08T14:07:45.390Z,6.07
2024-03-08T14:12:48.486Z,7.28
2024-03-08T14:17:54.191Z,6.90
2024-03-08T14:22:56.814Z,6.90
2024-03-08T14:28:00.320Z,5.88
2024-03-08T14:33:02.692Z,6.10
2024-03-08T14:43:08.157Z,4.82
2024-03-08T14:48:10.242Z,5.35
2024-03-08T14:53:11.940Z,4.97
2024-03-08T14:58:15.395Z,5.78
2024-03-08T15:03:17.167Z,5.00
2024-03-08T15:08:18.847Z,5.60
2024-03-08T15:13:22.737Z,6.75
2024-03-08T15:18:25.852Z,7.28
2024-03-08T15:23:27.588Z,5.50
2024-03-08T15:28:30.849Z,5.82
2024-03-08T15:33:33.717Z,5.97
2024-03-08T15:38:35.422Z,6.07
2024-03-08T15:43:38.825Z,6.50
2024-03-08T15:48:40.504Z,6.75
2024-03-08T15:53:42.211Z,7.30
2024-03-08T15:58:45.192Z,7.00
2024-03-08T16:03:47.117Z,6.85
2024-03-08T16:08:48.809Z,8.00
2024-03-08T16:13:52.001Z,6.50
2024-03-08T16:18:53.733Z,6.97
2024-03-08T16:23:55.407Z,8.50
2024-03-08T16:28:58.417Z,8.00
2024-03-08T16:34:00.090Z,9.05
2024-03-08T16:39:01.758Z,6.60
2024-03-08T16:44:05.213Z,6.72
2024-03-08T16:49:07.195Z,6.80
2024-03-08T16:54:09.147Z,6.55
2024-03-08T16:59:12.218Z,8.93
2024-03-08T17:04:13.899Z,7.88
2024-03-08T17:09:15.659Z,8.13
2024-03-08T17:14:18.712Z,8.35
2024-03-08T17:19:20.413Z,7.45
2024-03-08T17:24:22.152Z,7.22
2024-03-08T17:29:25.138Z,7.65
2024-03-08T17:34:26.944Z,8.05
2024-03-08T17:39:28.886Z,8.45
2024-03-08T17:44:33.432Z,8.27
2024-03-08T17:49:36.535Z,8.25
2024-03-08T17:54:38.293Z,8.57
2024-03-08T17:59:41.305Z,9.13
2024-03-08T18:04:43.323Z,7.38
2024-03-08T18:09:45.105Z,8.07
2024-03-08T18:14:48.111Z,7.07
2024-03-08T18:19:51.172Z,8.88
2024-03-08T18:24:53.366Z,8.80
2024-03-08T18:29:56.442Z,7.60
2024-03-08T18:34:58.275Z,10.02
2024-03-08T18:40:00.341Z,8.10
2024-03-08T18:45:04.049Z,7.20
2024-03-08T18:50:07.296Z,8.13
2024-03-08T18:55:10.215Z,8.20
2024-03-08T19:00:15.706Z,7.97
2024-03-08T19:05:18.044Z,6.88
2024-03-08T19:10:22.287Z,6.40
2024-03-08T19:15:27.327Z,6.18
2024-03-08T19:20:30.389Z,7.18
2024-03-08T19:30:35.653Z,7.55
2024-03-08T19:35:37.596Z,8.02
2024-03-08T19:40:39.578Z,7.00
2024-03-08T19:45:42.790Z,8.15
2024-03-08T19:50:44.808Z,7.43
2024-03-08T19:55:47.198Z,7.30
2024-03-08T20:00:50.923Z,8.88
2024-03-08T20:05:53.002Z,11.05
2024-03-08T20:10:54.692Z,9.50
2024-03-08T20:15:57.703Z,7.85
2024-03-08T20:20:59.317Z,8.25
2024-03-08T20:26:01.042Z,7.72
2024-03-08T20:31:04.686Z,7.68
2024-03-08T20:36:07.267Z,8.77
2024-03-08T20:41:09.051Z,8.48
2024-03-08T20:46:13.400Z,10.43
2024-03-08T20:51:16.036Z,8.30
2024-03-08T20:56:17.646Z,7.88
2024-03-08T21:01:20.785Z,6.65
2024-03-08T21:06:22.506Z,7.18
2024-03-08T21:11:24.586Z,7.80
2024-03-08T21:16:27.739Z,9.35
2024-03-08T21:26:31.432Z,6.07
2024-03-08T21:31:34.457Z,6.80
2024-03-08T21:36:36.281Z,6.63
2024-03-08T21:41:38.346Z,7.32
2024-03-08T21:46:41.887Z,6.65
2024-03-08T21:51:43.681Z,6.63
2024-03-08T21:56:45.257Z,7.65
2024-03-08T22:01:48.295Z,6.28
2024-03-08T22:11:51.764Z,6.28
2024-03-08T22:16:54.794Z,6.35
2024-03-08T22:21:56.800Z,7.32
2024-03-08T22:26:58.471Z,6.20
2024-03-08T22:32:01.667Z,5.82
2024-03-08T22:37:04.291Z,6.82
2024-03-08T22:42:06.259Z,6.05
2024-03-08T22:47:09.291Z,6.97
2024-03-08T22:57:12.537Z,6.05
2024-03-08T23:02:15.595Z,6.32
2024-03-08T23:07:17.269Z,6.28
2024-03-08T23:12:19.133Z,5.32
2024-03-08T23:17:22.079Z,6.15
2024-03-08T23:22:23.815Z,4.70
2024-03-08T23:27:25.433Z,5.70
2024-03-08T23:32:28.427Z,5.82
2024-03-08T23:37:30.264Z,5.35
2024-03-08T23:42:32.269Z,6.40
2024-03-08T23:47:35.449Z,4.93
2024-03-08T23:57:38.930Z,6.40
